Time;durP1;ratioP1;P1;durP2;ratioP2;P2;SDS_P1;SDS_P2;PMS_P1;PMS_P2;Temp;Humidity;BMP_temperature;BMP_pressure;BME280_temperature;BME280_humidity;BME280_pressure;Samples;Min_cycle;Max_cycle;Signal;HPM_P1;HPM_P2
2022/07/01 00:00:25;;;;;;;4.03;3.03;;;27.30;80.10;;;;;;5038525;28;20033;-70
2022/07/01 00:02:50;;;;;;;3.05;2.65;;;27.30;80.30;;;;;;5038413;28;20117;-71
2022/07/01 00:05:16;;;;;;;5.22;3.10;;;27.30;80.40;;;;;;5038663;28;20036;-71
2022/07/01 00:07:42;;;;;;;3.45;2.95;;;27.30;80.40;;;;;;5036982;28;20377;-71
2022/07/01 00:10:08;;;;;;;3.40;3.10;;;27.20;80.40;;;;;;5038680;28;20021;-70
2022/07/01 00:12:34;;;;;;;3.22;2.92;;;27.20;80.50;;;;;;5038408;28;20474;-71
2022/07/01 00:14:59;;;;;;;3.90;3.33;;;27.20;80.80;;;;;;5038356;28;20352;-72
2022/07/01 00:17:25;;;;;;;3.78;3.38;;;27.20;80.80;;;;;;5038578;28;20108;-72
2022/07/01 00:19:50;;;;;;;3.80;3.28;;;27.20;81.00;;;;;;5037244;28;20026;-71
2022/07/01 00:22:16;;;;;;;4.93;2.78;;;27.10;80.80;;;;;;5034836;28;20021;-71
2022/07/01 00:24:42;;;;;;;3.03;2.50;;;27.10;81.00;;;;;;5035156;28;20041;-72
2022/07/01 00:27:08;;;;;;;4.10;3.42;;;27.10;81.20;;;;;;5034612;28;20041;-71
2022/07/01 00:29:34;;;;;;;4.43;2.72;;;27.00;81.20;;;;;;5035143;28;20033;-71
2022/07/01 00:31:59;;;;;;;3.35;3.05;;;27.00;81.20;;;;;;5034256;28;20040;-71
2022/07/01 00:34:25;;;;;;;5.35;3.17;;;27.00;81.10;;;;;;5034712;28;20040;-71
2022/07/01 00:36:51;;;;;;;4.03;3.13;;;27.00;81.50;;;;;;5035427;28;20029;-71
2022/07/01 00:39:16;;;;;;;4.88;3.50;;;26.90;81.50;;;;;;5034895;28;20382;-71
2022/07/01 00:41:42;;;;;;;3.90;2.70;;;26.80;81.80;;;;;;5034262;28;20037;-73
2022/07/01 00:44:28;;;;;;;3.67;3.33;;;26.70;82.20;;;;;;5035137;28;20037;-71
2022/07/01 00:46:54;;;;;;;4.05;3.20;;;26.60;82.60;;;;;;5034220;28;20132;-72
2022/07/01 00:49:30;;;;;;;3.33;2.67;;;26.50;82.90;;;;;;5034380;28;20097;-72
2022/07/01 00:51:57;;;;;;;3.92;3.53;;;26.40;83.50;;;;;;5034978;28;20026;-72
2022/07/01 00:54:23;;;;;;;3.92;3.17;;;26.30;83.90;;;;;;5035057;28;20037;-72
2022/07/01 00:56:49;;;;;;;3.72;3.15;;;26.20;84.70;;;;;;5031383;28;20365;-71
2022/07/01 00:59:15;;;;;;;3.70;3.25;;;26.20;85.10;;;;;;5033308;28;20037;-72
2022/07/01 01:01:41;;;;;;;4.93;3.45;;;26.10;85.60;;;;;;5032390;28;20037;-72
2022/07/01 01:04:07;;;;;;;4.38;3.13;;;26.00;85.90;;;;;;5033105;28;20037;-70
2022/07/01 01:06:34;;;;;;;3.10;2.80;;;26.00;86.50;;;;;;5033604;28;20339;-72
2022/07/01 01:09:00;;;;;;;5.35;3.80;;;25.90;86.40;;;;;;5032861;28;20025;-72
2022/07/01 01:11:26;;;;;;;3.50;3.20;;;25.90;86.50;;;;;;5034107;28;20071;-71
2022/07/01 01:13:52;;;;;;;4.30;3.35;;;25.90;86.50;;;;;;5034176;28;20416;-72
2022/07/01 01:16:22;;;;;;;7.45;3.85;;;25.80;86.30;;;;;;5016764;28;20075;-72
2022/07/01 01:18:48;;;;;;;4.17;3.67;;;25.80;86.30;;;;;;5034272;28;20071;-72
2022/07/01 01:21:14;;;;;;;5.22;3.80;;;25.80;86.60;;;;;;5034438;28;20030;-71
2022/07/01 01:23:40;;;;;;;4.60;3.13;;;25.80;86.60;;;;;;5034147;28;20355;-71
2022/07/01 01:26:20;;;;;;;4.43;3.22;;;25.80;86.70;;;;;;5033855;28;20033;-71
2022/07/01 01:28:46;;;;;;;4.18;3.13;;;25.80;86.50;;;;;;5034122;28;20045;-73
2022/07/01 01:31:12;;;;;;;4.03;3.13;;;25.80;86.20;;;;;;5034167;28;20405;-72
2022/07/01 01:33:38;;;;;;;5.30;3.47;;;25.80;86.00;;;;;;5034165;28;20087;-71
2022/07/01 01:36:05;;;;;;;7.82;3.67;;;25.80;86.10;;;;;;5033087;28;20053;-73
2022/07/01 01:38:32;;;;;;;5.22;3.70;;;25.80;86.00;;;;;;5033184;28;20049;-72
2022/07/01 01:40:58;;;;;;;3.17;2.88;;;25.80;86.00;;;;;;5034139;28;20075;-72
2022/07/01 01:43:23;;;;;;;4.55;3.08;;;25.80;86.30;;;;;;5034040;28;20033;-72
2022/07/01 01:45:49;;;;;;;3.78;3.13;;;25.80;86.10;;;;;;5033812;28;20477;-71
2022/07/01 01:48:14;;;;;;;4.35;3.20;;;25.80;85.50;;;;;;5034152;28;20056;-72
2022/07/01 01:50:40;;;;;;;3.50;2.88;;;25.80;85.20;;;;;;5033991;28;20421;-72
2022/07/01 01:53:05;;;;;;;6.90;3.08;;;25.80;84.90;;;;;;5033511;28;20037;-71
2022/07/01 01:55:31;;;;;;;7.03;3.50;;;25.90;84.70;;;;;;5034004;28;20032;-72
2022/07/01 01:57:57;;;;;;;4.30;3.38;;;25.90;84.50;;;;;;5033185;28;20030;-72
2022/07/01 02:00:22;;;;;;;4.35;3.08;;;26.00;84.60;;;;;;5033384;28;20392;-71
2022/07/01 02:02:48;;;;;;;3.90;3.33;;;26.00;84.10;;;;;;5033786;28;20038;-71
2022/07/01 02:05:14;;;;;;;6.10;3.20;;;26.00;83.90;;;;;;5033620;28;20033;-72
2022/07/01 02:07:40;;;;;;;4.45;3.45;;;26.10;83.40;;;;;;5033556;28;20473;-72
2022/07/01 02:10:07;;;;;;;3.40;3.10;;;26.10;83.50;;;;;;5033533;28;20029;-72
2022/07/01 02:12:33;;;;;;;3.47;3.17;;;26.10;83.10;;;;;;5033627;28;20040;-72
2022/07/01 02:14:58;;;;;;;3.45;3.15;;;26.10;83.10;;;;;;5032861;28;20029;-72
2022/07/01 02:17:25;;;;;;;4.00;2.95;;;26.20;82.80;;;;;;5033293;28;20033;-72
2022/07/01 02:19:51;;;;;;;3.38;3.05;;;26.10;82.50;;;;;;5033050;28;20029;-72
2022/07/01 02:22:17;;;;;;;4.80;3.15;;;26.20;82.00;;;;;;5033092;28;20048;-72
2022/07/01 02:24:43;;;;;;;3.88;3.25;;;26.10;81.70;;;;;;5033371;28;20381;-72
2022/07/01 02:27:09;;;;;;;4.57;3.17;;;26.10;81.40;;;;;;5032377;28;20049;-72
2022/07/01 02:29:35;;;;;;;4.53;2.85;;;26.10;81.30;;;;;;5033293;28;20021;-72
2022/07/01 02:32:00;;;;;;;3.78;2.75;;;26.00;80.80;;;;;;5032702;28;20032;-73
2022/07/01 02:34:26;;;;;;;3.95;3.22;;;26.00;80.60;;;;;;5033081;28;20091;-72
2022/07/01 02:36:55;;;;;;;5.28;3.38;;;26.00;80.40;;;;;;5032628;28;20040;-72
2022/07/01 02:39:20;;;;;;;3.03;2.72;;;26.00;80.30;;;;;;5033067;28;20108;-72
2022/07/01 02:44:30;;;;;;;4.65;2.88;;;25.90;80.30;;;;;;5031970;28;20079;-72
2022/07/01 02:46:57;;;;;;;3.85;2.80;;;26.00;79.10;;;;;;5032264;28;20029;-72
2022/07/01 02:49:22;;;;;;;2.80;2.58;;;26.00;78.90;;;;;;5032972;28;20038;-73
2022/07/01 02:51:48;;;;;;;3.00;2.70;;;26.00;78.30;;;;;;5032834;28;20033;-72
2022/07/01 02:54:13;;;;;;;3.33;2.80;;;25.90;77.30;;;;;;5032009;28;20052;-73
2022/07/01 02:56:39;;;;;;;3.50;2.60;;;25.90;76.60;;;;;;5032597;28;20044;-72
2022/07/01 02:59:04;;;;;;;3.83;2.50;;;25.90;75.80;;;;;;5032226;28;20028;-73
2022/07/01 03:01:30;;;;;;;3.10;2.70;;;25.90;75.50;;;;;;5033035;28;20079;-73
2022/07/01 03:03:56;;;;;;;5.68;2.45;;;25.90;75.10;;;;;;5032417;28;20448;-74
2022/07/01 03:06:21;;;;;;;3.35;2.15;;;25.90;74.50;;;;;;5033082;28;20104;-72
2022/07/01 03:08:47;;;;;;;2.92;2.47;;;25.80;74.00;;;;;;5032597;28;20034;-72
2022/07/01 03:11:12;;;;;;;3.33;2.33;;;25.80;73.90;;;;;;5014602;28;20022;-72
2022/07/01 03:13:38;;;;;;;2.35;2.10;;;25.80;73.60;;;;;;5032744;28;20091;-72
2022/07/01 03:16:04;;;;;;;5.75;2.63;;;25.80;73.10;;;;;;5032501;28;20030;-72
2022/07/01 03:18:29;;;;;;;6.13;2.25;;;25.90;73.10;;;;;;5032665;28;20390;-72
2022/07/01 03:20:55;;;;;;;2.47;2.17;;;25.90;72.70;;;;;;5032350;28;20021;-73
2022/07/01 03:23:21;;;;;;;3.08;2.22;;;25.90;72.80;;;;;;5031941;28;20095;-72
2022/07/01 03:25:46;;;;;;;2.95;2.35;;;25.90;72.70;;;;;;5032404;28;20037;-72
2022/07/01 03:28:12;;;;;;;3.13;2.38;;;25.90;72.90;;;;;;5031891;28;20058;-72
2022/07/01 03:30:37;;;;;;;3.03;1.98;;;25.90;73.10;;;;;;5032624;28;20087;-72
2022/07/01 03:33:03;;;;;;;2.90;2.17;;;26.00;73.20;;;;;;5032418;28;20032;-72
2022/07/01 03:35:45;;;;;;;2.78;2.20;;;25.90;73.40;;;;;;5032262;28;20411;-72
2022/07/01 03:38:11;;;;;;;2.67;2.13;;;25.90;73.50;;;;;;5031753;28;20025;-72
2022/07/01 03:40:38;;;;;;;2.47;2.28;;;25.90;74.20;;;;;;5032137;28;20435;-72
2022/07/01 03:43:04;;;;;;;4.55;2.72;;;25.90;73.90;;;;;;5031790;28;20033;-72
2022/07/01 03:45:31;;;;;;;2.65;2.30;;;25.90;74.20;;;;;;5032682;28;20116;-72
2022/07/01 03:47:57;;;;;;;2.80;2.45;;;25.90;74.50;;;;;;5032387;28;20105;-72
2022/07/01 03:50:24;;;;;;;3.75;2.55;;;25.90;74.80;;;;;;5031849;28;20033;-72
2022/07/01 03:54:29;;;;;;;3.10;2.40;;;25.90;74.80;;;;;;5032443;28;20397;-71
2022/07/01 03:55:36;;;;;;;2.72;2.47;;;25.90;74.40;;;;;;5034246;28;20033;-71
2022/07/01 03:58:02;;;;;;;3.17;2.17;;;25.90;74.10;;;;;;5035728;28;20029;-71
2022/07/01 04:00:28;;;;;;;2.88;2.20;;;25.90;73.80;;;;;;5035727;28;20032;-72
2022/07/01 04:02:53;;;;;;;2.20;2.00;;;25.90;73.20;;;;;;5035643;28;20386;-71
2022/07/01 04:05:19;;;;;;;2.75;2.30;;;25.80;73.10;;;;;;5035063;28;20033;-72
2022/07/01 04:07:45;;;;;;;4.68;2.88;;;25.90;72.90;;;;;;5035991;28;20033;-72
2022/07/01 04:10:11;;;;;;;4.35;2.78;;;25.90;72.60;;;;;;5035459;28;20521;-72
2022/07/01 04:12:38;;;;;;;4.85;2.42;;;25.90;72.60;;;;;;5035585;28;20033;-73
2022/07/01 04:15:04;;;;;;;2.03;1.85;;;25.90;72.80;;;;;;5034660;28;20060;-73
2022/07/01 04:17:29;;;;;;;2.47;2.10;;;26.00;72.20;;;;;;5035741;28;20072;-73
2022/07/01 04:19:55;;;;;;;3.33;2.33;;;26.00;72.30;;;;;;5035282;28;20477;-72
2022/07/01 04:22:32;;;;;;;4.57;1.80;;;26.10;72.20;;;;;;5034925;28;20096;-72
2022/07/01 04:25:00;;;;;;;2.05;1.63;;;26.10;70.90;;;;;;5035522;28;20037;-72
2022/07/01 04:27:26;;;;;;;2.30;1.80;;;26.20;70.40;;;;;;5035367;28;20111;-73
2022/07/01 04:29:52;;;;;;;4.10;1.92;;;26.30;70.00;;;;;;5035410;28;20026;-73
2022/07/01 04:32:17;;;;;;;5.03;2.00;;;26.40;69.30;;;;;;5035132;28;20021;-71
2022/07/01 04:34:43;;;;;;;2.42;2.17;;;26.50;69.30;;;;;;5035806;28;20022;-72
2022/07/01 04:37:09;;;;;;;3.53;1.67;;;26.70;68.80;;;;;;5034928;28;20450;-72
2022/07/01 04:39:34;;;;;;;2.30;2.10;;;26.80;67.90;;;;;;5035732;28;20025;-72
2022/07/01 04:42:00;;;;;;;2.22;1.90;;;26.90;66.70;;;;;;5035095;28;20156;-72
2022/07/01 04:44:27;;;;;;;3.20;1.83;;;27.00;66.60;;;;;;5034834;28;20351;-72
2022/07/01 04:46:52;;;;;;;2.75;1.95;;;27.10;66.50;;;;;;5033611;28;20097;-72
2022/07/01 04:49:18;;;;;;;3.80;1.98;;;27.20;66.20;;;;;;5031658;28;20493;-74
2022/07/01 04:51:44;;;;;;;2.17;1.98;;;27.30;66.20;;;;;;5029791;28;20018;-72
2022/07/01 04:54:09;;;;;;;2.90;2.22;;;27.50;65.80;;;;;;5034520;28;20029;-72
2022/07/01 04:56:36;;;;;;;2.75;2.00;;;27.70;65.30;;;;;;5034171;28;20034;-72
2022/07/01 04:59:02;;;;;;;4.13;2.10;;;27.90;64.50;;;;;;5034234;28;20029;-72
2022/07/01 05:01:28;;;;;;;6.97;2.10;;;28.00;64.40;;;;;;5033442;28;20087;-74
2022/07/01 05:03:56;;;;;;;2.47;1.88;;;28.10;64.00;;;;;;5033743;28;20076;-73
2022/07/01 05:06:21;;;;;;;6.60;2.22;;;28.30;63.60;;;;;;5033265;28;20037;-73
2022/07/01 05:08:47;;;;;;;4.15;1.77;;;28.50;62.40;;;;;;5033677;28;20025;-73
2022/07/01 05:11:12;;;;;;;2.00;1.80;;;28.60;61.80;;;;;;5033143;28;20116;-71
2022/07/01 05:13:38;;;;;;;2.00;1.80;;;28.70;60.90;;;;;;5033965;28;20480;-71
2022/07/01 05:16:05;;;;;;;2.63;1.55;;;29.00;60.00;;;;;;5033596;28;20029;-73
2022/07/01 05:23:59;;;;;;;4.65;1.35;;;29.80;57.20;;;;;;5034125;28;20045;-72
2022/07/01 05:26:25;;;;;;;1.35;1.25;;;29.60;57.00;;;;;;5033681;28;20565;-72
2022/07/01 05:28:52;;;;;;;2.00;1.52;;;29.60;57.50;;;;;;5034586;28;20026;-72
2022/07/01 05:31:19;;;;;;;1.38;1.17;;;29.60;57.20;;;;;;5033951;28;20032;-72
2022/07/01 05:33:45;;;;;;;2.33;1.45;;;29.60;56.40;;;;;;5034579;28;20068;-71
2022/07/01 05:36:10;;;;;;;2.40;1.13;;;29.60;56.50;;;;;;5033572;28;20080;-72
2022/07/01 05:38:36;;;;;;;1.17;0.80;;;29.60;55.20;;;;;;5034234;28;20431;-72
2022/07/01 05:41:02;;;;;;;1.00;0.90;;;29.60;55.00;;;;;;5033463;28;20116;-72
2022/07/01 05:43:29;;;;;;;2.53;1.25;;;29.60;54.40;;;;;;5033232;28;20117;-72
2022/07/01 05:45:55;;;;;;;0.80;0.68;;;29.60;54.50;;;;;;5033625;28;20385;-72
2022/07/01 05:48:20;;;;;;;1.42;0.80;;;29.70;53.90;;;;;;5033309;28;20119;-72
2022/07/01 05:50:47;;;;;;;0.85;0.68;;;29.90;53.60;;;;;;5033699;28;20029;-72
2022/07/01 05:53:12;;;;;;;2.22;0.90;;;30.10;53.30;;;;;;5033161;28;20041;-73
2022/07/01 05:55:38;;;;;;;0.85;0.57;;;30.70;52.60;;;;;;5033972;28;20029;-73
2022/07/01 05:58:06;;;;;;;0.57;0.57;;;31.90;51.00;;;;;;5033955;28;20067;-72
2022/07/01 06:00:32;;;;;;;0.57;0.57;;;32.90;48.70;;;;;;5033397;28;20104;-72
2022/07/01 06:02:57;;;;;;;3.05;0.70;;;33.60;47.00;;;;;;5033761;28;20648;-72
2022/07/01 06:05:23;;;;;;;0.70;0.70;;;34.20;46.10;;;;;;5032905;28;20462;-72
2022/07/01 06:07:48;;;;;;;1.15;0.77;;;34.50;45.10;;;;;;5033532;28;20026;-71
2022/07/01 06:10:14;;;;;;;1.20;0.80;;;34.60;44.90;;;;;;5033061;28;20021;-72
2022/07/01 06:12:40;;;;;;;1.80;0.70;;;34.60;44.40;;;;;;5033148;28;20126;-72
2022/07/01 06:15:08;;;;;;;3.67;0.68;;;34.20;45.00;;;;;;5032980;28;20017;-72
2022/07/01 06:17:38;;;;;;;1.48;1.02;;;33.10;46.20;;;;;;5032546;28;20037;-72
2022/07/01 06:20:04;;;;;;;1.00;0.85;;;32.50;47.70;;;;;;5032729;28;20037;-72
2022/07/01 06:22:30;;;;;;;3.20;0.93;;;32.20;48.70;;;;;;5032344;28;20400;-71
2022/07/01 06:24:56;;;;;;;1.73;0.90;;;32.00;49.20;;;;;;5033100;28;20037;-72
2022/07/01 06:27:23;;;;;;;2.00;0.95;;;32.50;48.90;;;;;;5032173;28;20061;-72
2022/07/01 06:29:50;;;;;;;1.10;0.82;;;32.40;49.00;;;;;;5015185;28;20032;-72
2022/07/01 06:32:15;;;;;;;1.20;0.90;;;32.70;49.60;;;;;;5032637;28;20470;-72
2022/07/01 06:34:41;;;;;;;3.45;1.00;;;32.70;48.50;;;;;;5032946;28;20105;-72
2022/07/01 06:37:07;;;;;;;1.05;0.95;;;32.70;48.50;;;;;;5032642;28;20021;-72
2022/07/01 06:39:33;;;;;;;1.35;1.00;;;32.90;48.60;;;;;;5014455;28;20468;-72
2022/07/01 06:41:59;;;;;;;0.95;0.85;;;33.00;48.50;;;;;;5033126;28;20083;-72
2022/07/01 06:44:24;;;;;;;0.88;0.85;;;33.20;48.50;;;;;;5032438;28;20481;-71
2022/07/01 06:46:50;;;;;;;5.70;1.35;;;33.30;48.30;;;;;;5032745;28;20115;-72
2022/07/01 06:49:16;;;;;;;2.17;0.98;;;33.00;48.10;;;;;;5032338;28;20160;-71
2022/07/01 06:51:41;;;;;;;1.33;1.00;;;32.80;48.70;;;;;;5032705;28;20021;-71
2022/07/01 06:54:08;;;;;;;1.52;1.10;;;32.80;48.60;;;;;;5032612;28;20473;-72
2022/07/01 06:56:34;;;;;;;2.15;1.23;;;32.90;48.40;;;;;;5031913;28;20033;-73
2022/07/01 06:59:01;;;;;;;2.60;1.30;;;32.80;48.90;;;;;;5032274;28;20068;-72
2022/07/01 07:01:27;;;;;;;1.45;1.10;;;32.40;49.40;;;;;;5032238;28;20116;-72
2022/07/01 07:03:53;;;;;;;1.30;1.10;;;31.90;49.80;;;;;;5032741;28;20116;-71
2022/07/01 07:06:18;;;;;;;2.10;1.20;;;31.80;50.20;;;;;;5032007;28;20044;-72
2022/07/01 07:08:44;;;;;;;1.35;1.20;;;31.50;50.70;;;;;;5032821;28;20084;-72
2022/07/01 07:11:10;;;;;;;3.25;1.20;;;31.40;50.80;;;;;;5032662;28;20116;-71
2022/07/01 07:13:36;;;;;;;1.27;1.15;;;31.40;51.20;;;;;;5032399;28;20363;-71
2022/07/01 07:16:02;;;;;;;1.52;1.17;;;31.60;51.20;;;;;;5032275;28;20028;-71
2022/07/01 07:18:28;;;;;;;5.35;1.27;;;31.60;50.80;;;;;;5014179;28;20079;-71
2022/07/01 07:20:54;;;;;;;1.13;0.95;;;31.70;51.30;;;;;;5014759;28;20502;-72
2022/07/01 07:23:20;;;;;;;4.90;1.95;;;31.70;51.30;;;;;;5031773;28;20049;-72
2022/07/01 07:25:46;;;;;;;1.63;1.35;;;32.10;51.00;;;;;;5032254;28;20396;-72
2022/07/01 07:28:12;;;;;;;3.58;1.20;;;32.30;51.10;;;;;;5031835;28;20494;-72
2022/07/01 07:30:38;;;;;;;3.25;1.40;;;32.50;50.90;;;;;;5033953;28;20025;-72
2022/07/01 07:33:04;;;;;;;2.20;1.40;;;32.90;50.40;;;;;;5036351;28;20049;-71
2022/07/01 07:35:29;;;;;;;3.33;1.90;;;33.00;50.30;;;;;;5036213;28;20029;-72
2022/07/01 07:37:55;;;;;;;2.30;1.50;;;33.30;50.60;;;;;;5036717;28;20480;-72
2022/07/01 07:40:20;;;;;;;2.88;1.33;;;33.40;50.00;;;;;;5035944;28;20079;-72
2022/07/01 07:42:47;;;;;;;3.33;1.25;;;33.40;49.00;;;;;;5035915;28;20177;-72
2022/07/01 07:45:14;;;;;;;1.38;1.23;;;33.20;49.60;;;;;;5036121;28;20030;-72
2022/07/01 07:47:44;;;;;;;1.90;1.15;;;33.20;49.20;;;;;;5036191;28;20521;-73
2022/07/01 07:50:11;;;;;;;2.08;1.50;;;32.90;49.50;;;;;;5036341;28;20359;-72
2022/07/01 07:52:38;;;;;;;2.83;1.67;;;32.70;50.20;;;;;;5035361;28;20819;-72
2022/07/01 07:55:05;;;;;;;2.45;1.63;;;32.60;51.20;;;;;;5035735;28;20025;-72
2022/07/01 07:57:31;;;;;;;2.08;1.80;;;32.90;50.90;;;;;;5035685;28;20057;-72
2022/07/01 07:59:57;;;;;;;3.72;1.70;;;33.10;50.20;;;;;;5035975;28;20057;-72
2022/07/01 08:02:22;;;;;;;1.90;1.30;;;32.90;49.80;;;;;;5035566;28;20078;-70
2022/07/01 08:04:48;;;;;;;2.17;1.67;;;32.50;49.50;;;;;;5035918;28;20026;-71
2022/07/01 08:07:13;;;;;;;4.20;1.77;;;32.30;50.20;;;;;;5035612;28;20037;-71
2022/07/01 08:09:41;;;;;;;2.17;1.73;;;32.10;50.60;;;;;;5035135;28;20080;-71
2022/07/01 08:12:07;;;;;;;1.60;1.50;;;31.60;51.20;;;;;;5035374;28;20029;-71
2022/07/01 08:14:33;;;;;;;2.28;1.48;;;31.40;51.50;;;;;;5034982;28;20404;-72
2022/07/01 08:16:59;;;;;;;2.38;2.17;;;31.30;52.00;;;;;;5035287;28;20029;-72
2022/07/01 08:19:24;;;;;;;3.45;1.95;;;30.80;52.80;;;;;;5034406;28;20029;-72
2022/07/01 08:21:50;;;;;;;2.92;1.88;;;30.40;53.80;;;;;;5035826;28;20084;-72
2022/07/01 08:24:16;;;;;;;4.10;1.70;;;30.30;54.80;;;;;;5035002;28;20064;-72
2022/07/01 08:26:41;;;;;;;3.65;1.77;;;30.10;54.70;;;;;;5034464;28;20103;-71
2022/07/01 08:29:07;;;;;;;2.08;1.70;;;30.00;55.10;;;;;;5035345;28;20029;-71
2022/07/01 08:31:32;;;;;;;4.28;2.00;;;29.90;55.30;;;;;;5034636;28;20030;-72
2022/07/01 08:33:58;;;;;;;2.20;1.90;;;29.90;56.20;;;;;;5034851;28;20109;-71
2022/07/01 08:36:24;;;;;;;1.63;1.52;;;29.90;56.00;;;;;;5034510;28;20025;-72
2022/07/01 08:38:50;;;;;;;2.13;1.80;;;29.90;56.40;;;;;;5034718;28;20083;-72
2022/07/01 08:41:18;;;;;;;3.90;1.95;;;30.00;56.50;;;;;;5034011;28;20032;-72
2022/07/01 08:43:44;;;;;;;3.53;1.80;;;30.00;56.00;;;;;;5034302;28;20091;-72
2022/07/01 08:46:10;;;;;;;1.70;1.40;;;29.90;56.20;;;;;;5035056;28;20021;-72
2022/07/01 08:48:35;;;;;;;4.97;1.77;;;29.80;56.40;;;;;;5034603;28;20025;-72
2022/07/01 08:51:03;;;;;;;4.40;1.83;;;29.80;56.60;;;;;;5035053;28;20025;-72
2022/07/01 08:53:31;;;;;;;2.33;1.90;;;29.80;56.80;;;;;;5034633;28;20043;-73
2022/07/01 08:58:42;;;;;;;2.20;2.00;;;29.70;56.80;;;;;;5034635;28;20041;-72
2022/07/01 09:01:20;;;;;;;4.25;1.92;;;29.60;56.90;;;;;;5034689;28;20030;-72
2022/07/01 09:03:47;;;;;;;3.97;1.77;;;29.60;56.70;;;;;;5034403;28;20505;-72
2022/07/01 09:06:18;;;;;;;2.42;1.90;;;29.60;56.60;;;;;;5034150;28;20501;-71
2022/07/01 09:08:45;;;;;;;2.33;1.60;;;29.60;56.80;;;;;;5033892;28;20022;-71
2022/07/01 09:11:21;;;;;;;2.30;1.92;;;29.60;56.20;;;;;;5034521;28;20111;-71
2022/07/01 09:14:09;;;;;;;3.92;1.65;;;29.60;56.90;;;;;;5017114;28;20545;-71
2022/07/01 09:16:50;;;;;;;1.80;1.70;;;29.60;57.00;;;;;;5034237;28;20026;-71
2022/07/01 09:19:18;;;;;;;1.83;1.60;;;29.60;56.00;;;;;;5034508;28;20032;-72
2022/07/01 09:21:52;;;;;;;2.92;1.85;;;29.50;56.20;;;;;;5033840;28;20029;-73
2022/07/01 09:24:39;;;;;;;2.75;1.98;;;29.40;56.50;;;;;;5034204;28;20038;-73
2022/07/01 09:27:13;;;;;;;2.25;1.70;;;29.40;56.90;;;;;;5034110;28;20056;-73
2022/07/01 09:29:42;;;;;;;2.25;2.05;;;29.30;57.10;;;;;;5033712;28;20030;-73
2022/07/01 09:32:10;;;;;;;1.85;1.70;;;29.20;57.00;;;;;;5034059;28;20037;-71
2022/07/01 09:34:48;;;;;;;3.58;2.13;;;29.10;57.60;;;;;;5033530;28;20339;-71
2022/07/01 09:37:25;;;;;;;2.85;2.22;;;29.10;58.10;;;;;;5016432;28;20167;-71
2022/07/01 09:39:52;;;;;;;3.05;2.30;;;29.10;58.80;;;;;;5033585;28;20025;-71
2022/07/01 09:42:20;;;;;;;4.68;2.28;;;29.10;59.00;;;;;;5034045;28;20469;-71
2022/07/01 09:44:51;;;;;;;4.18;1.98;;;29.10;58.90;;;;;;5033114;28;20449;-71
2022/07/01 09:47:17;;;;;;;2.65;1.90;;;29.20;58.20;;;;;;5033584;28;20071;-71
2022/07/01 09:49:43;;;;;;;2.85;2.40;;;29.20;58.20;;;;;;5033299;28;20484;-72
2022/07/01 09:52:09;;;;;;;1.73;1.63;;;29.30;58.00;;;;;;5034015;28;20026;-72
2022/07/01 09:54:36;;;;;;;3.33;2.05;;;29.30;58.00;;;;;;5032948;28;20043;-72
2022/07/01 09:57:02;;;;;;;4.25;2.05;;;29.40;57.20;;;;;;5033739;28;20033;-71
2022/07/01 09:59:28;;;;;;;2.72;1.98;;;29.40;57.10;;;;;;5033468;28;20033;-71
2022/07/01 10:01:53;;;;;;;2.45;2.17;;;29.40;57.20;;;;;;5033424;28;20032;-71
2022/07/01 10:04:20;;;;;;;2.53;1.88;;;29.50;57.00;;;;;;5015969;28;20118;-72
2022/07/01 10:07:15;;;;;;;4.78;2.15;;;29.50;56.80;;;;;;5015330;28;20554;-72
2022/07/01 10:09:52;;;;;;;2.22;2.00;;;29.50;57.10;;;;;;5033101;28;20037;-72
2022/07/01 10:12:35;;;;;;;2.55;1.70;;;29.50;57.10;;;;;;5033428;28;20120;-73
2022/07/01 10:15:02;;;;;;;4.90;2.28;;;29.60;56.50;;;;;;5033012;28;20048;-72
2022/07/01 10:17:30;;;;;;;2.92;2.08;;;29.50;56.90;;;;;;5032863;28;20385;-72
2022/07/01 10:19:57;;;;;;;3.60;2.20;;;29.60;57.10;;;;;;5033381;28;20022;-71
2022/07/01 10:22:28;;;;;;;4.22;2.10;;;29.60;57.70;;;;;;5033231;28;20063;-72
2022/07/01 10:24:53;;;;;;;;;;;29.60;57.70;;;;;;5033596;28;20061;-72
2022/07/01 10:27:21;;;;;;;1.92;1.80;;;29.60;57.20;;;;;;5033021;28;19968;-72
2022/07/01 10:29:47;;;;;;;3.50;1.90;;;29.70;56.70;;;;;;5032519;28;20029;-72
2022/07/01 10:32:21;;;;;;;2.55;2.03;;;29.70;56.20;;;;;;5033002;28;20359;-72
2022/07/01 10:34:48;;;;;;;2.10;1.75;;;29.70;56.20;;;;;;5032330;28;20029;-72
2022/07/01 10:37:16;;;;;;;2.35;1.70;;;29.80;56.30;;;;;;5033042;28;20450;-72
2022/07/01 10:40:03;;;;;;;2.58;1.80;;;29.80;55.80;;;;;;5032601;28;20025;-71
2022/07/01 10:42:34;;;;;;;2.55;2.00;;;29.80;55.30;;;;;;5032771;28;20462;-72
2022/07/01 10:45:10;;;;;;;1.83;1.55;;;29.90;55.30;;;;;;5033053;28;20021;-72
2022/07/01 10:47:37;;;;;;;2.45;1.90;;;29.90;55.70;;;;;;5032572;28;20030;-72
2022/07/01 10:50:15;;;;;;;2.15;1.80;;;30.00;56.40;;;;;;5032840;28;20112;-72
2022/07/01 10:52:59;;;;;;;2.08;1.80;;;30.00;55.10;;;;;;5032300;28;20488;-71
2022/07/01 10:55:40;;;;;;;1.67;1.45;;;30.10;55.40;;;;;;5032682;28;20394;-72
2022/07/01 10:58:06;;;;;;;1.70;1.52;;;30.10;54.20;;;;;;5032642;28;20026;-73
2022/07/01 11:00:34;;;;;;;2.03;1.70;;;30.20;54.30;;;;;;5032052;28;20036;-71
2022/07/01 11:03:06;;;;;;;2.38;1.90;;;30.20;55.20;;;;;;5032530;28;20033;-71
2022/07/01 11:05:32;;;;;;;2.25;1.52;;;30.30;55.90;;;;;;5031521;28;20036;-72
2022/07/01 11:07:57;;;;;;;3.83;1.70;;;30.30;55.00;;;;;;5032575;28;20382;-71
2022/07/01 11:10:23;;;;;;;2.00;1.67;;;30.40;54.80;;;;;;5032193;28;20026;-71
2022/07/01 11:12:51;;;;;;;1.65;1.45;;;30.30;54.50;;;;;;5031834;28;20091;-72
2022/07/01 11:15:17;;;;;;;1.90;1.50;;;30.40;54.70;;;;;;5032391;28;20421;-72
2022/07/01 11:17:48;;;;;;;2.67;1.45;;;30.40;54.80;;;;;;5014430;28;20079;-72
2022/07/01 11:20:14;;;;;;;1.95;1.70;;;30.40;53.60;;;;;;5032590;28;20421;-73
2022/07/01 11:22:40;;;;;;;2.60;1.95;;;30.50;53.60;;;;;;5031687;28;20113;-72
2022/07/01 11:25:11;;;;;;;1.50;1.30;;;30.50;54.30;;;;;;5032304;28;20026;-72
2022/07/01 11:27:38;;;;;;;1.58;1.48;;;30.50;53.70;;;;;;5032128;28;20088;-73
2022/07/01 11:30:08;;;;;;;3.78;1.63;;;30.50;54.10;;;;;;5032332;28;20026;-72
2022/07/01 11:32:36;;;;;;;3.42;1.63;;;30.50;54.40;;;;;;5031874;28;20028;-72
2022/07/01 11:39:21;;;;;;;2.17;1.40;;;30.50;54.00;;;;;;5032438;28;20029;-72
2022/07/01 11:40:34;;;;;;;1.38;1.27;;;30.60;52.80;;;;;;5031417;28;20519;-73
2022/07/01 11:43:00;;;;;;;1.50;1.38;;;30.70;52.20;;;;;;5031675;28;20029;-71
2022/07/01 11:45:26;;;;;;;3.13;1.98;;;30.60;52.40;;;;;;5032178;28;20030;-71
2022/07/01 11:47:53;;;;;;;6.10;2.05;;;30.70;52.30;;;;;;5031718;28;20472;-72
2022/07/01 11:50:19;;;;;;;3.80;1.80;;;30.70;52.20;;;;;;5032350;28;20022;-72
2022/07/01 11:52:45;;;;;;;1.85;1.58;;;30.70;51.90;;;;;;5031625;28;20367;-72
2022/07/01 11:55:11;;;;;;;3.00;1.58;;;30.70;51.80;;;;;;5032005;28;20029;-72
2022/07/01 11:57:36;;;;;;;1.63;1.50;;;30.70;52.20;;;;;;5032227;28;20030;-72
2022/07/01 12:00:11;;;;;;;2.08;1.23;;;30.70;51.90;;;;;;5032441;28;20452;-72
2022/07/01 12:02:38;;;;;;;1.42;1.33;;;30.70;51.70;;;;;;5031447;28;20504;-72
2022/07/01 12:05:05;;;;;;;2.03;1.50;;;30.70;51.50;;;;;;5032047;28;20028;-71
2022/07/01 12:07:31;;;;;;;3.15;1.80;;;30.70;51.80;;;;;;5031662;28;20030;-72
2022/07/01 12:09:57;;;;;;;1.50;1.40;;;30.80;51.90;;;;;;5031454;28;20029;-72
2022/07/01 12:12:25;;;;;;;2.25;1.58;;;30.80;51.90;;;;;;5031934;28;20461;-71
2022/07/01 12:14:59;;;;;;;2.42;1.90;;;30.80;52.10;;;;;;5031451;28;20068;-71
2022/07/01 12:17:27;;;;;;;2.17;1.63;;;30.80;50.90;;;;;;5035188;28;20036;-71
2022/07/01 12:19:54;;;;;;;2.55;1.55;;;30.90;51.00;;;;;;5034965;28;20083;-72
2022/07/01 12:22:24;;;;;;;2.10;1.65;;;30.90;51.10;;;;;;5035709;28;20541;-71
2022/07/01 12:24:51;;;;;;;1.95;1.77;;;30.90;51.40;;;;;;5034416;28;20080;-71
2022/07/01 12:27:21;;;;;;;2.47;1.50;;;30.90;51.00;;;;;;5034876;28;20153;-71
2022/07/01 12:29:46;;;;;;;2.08;1.60;;;30.90;49.50;;;;;;5034807;28;20446;-71
2022/07/01 12:32:14;;;;;;;2.15;1.73;;;30.90;50.20;;;;;;5035402;28;20100;-72
2022/07/01 12:34:43;;;;;;;4.10;1.83;;;31.00;50.20;;;;;;5034803;28;20045;-72
2022/07/01 12:37:13;;;;;;;3.55;1.73;;;31.00;50.30;;;;;;5035391;28;20032;-72
2022/07/01 12:39:49;;;;;;;2.10;1.85;;;31.00;50.60;;;;;;5034942;28;20038;-72
2022/07/01 12:42:30;;;;;;;1.85;1.67;;;31.00;51.40;;;;;;5035254;28;20028;-72
2022/07/01 12:44:57;;;;;;;;;;;31.00;50.70;;;;;;5035084;28;20041;-72
2022/07/01 12:47:28;;;;;;;1.60;1.45;;;31.00;50.10;;;;;;5035147;28;20019;-72
2022/07/01 12:50:14;;;;;;;3.28;2.03;;;31.00;50.60;;;;;;5034629;28;20021;-72
2022/07/01 12:52:46;;;;;;;1.60;1.50;;;31.00;50.70;;;;;;5034380;28;20025;-73
2022/07/01 12:55:19;;;;;;;2.00;1.67;;;31.00;50.70;;;;;;5034851;28;20037;-73
2022/07/01 12:57:49;;;;;;;2.28;1.83;;;30.90;51.10;;;;;;5034230;28;20029;-72
2022/07/01 13:00:16;;;;;;;2.15;1.55;;;30.90;51.40;;;;;;5034896;28;20163;-73
2022/07/01 13:02:42;;;;;;;2.75;1.90;;;30.80;51.50;;;;;;5033953;28;20381;-73